sensor_id;sensor_type;location;lat;lon;timestamp;P1;durP1;ratioP1;P2;durP2;ratioP2
34144;SDS011;69555;53.014;8.886;2023-06-10T09:02:37;11.60;;;3.42;;
34144;SDS011;69555;53.014;8.886;2023-06-10T09:05:03;7.53;;;3.92;;
34144;SDS011;69555;53.014;8.886;2023-06-10T09:07:30;7.82;;;3.25;;
34144;SDS011;69555;53.014;8.886;2023-06-10T09:09:56;8.90;;;4.30;;
34144;SDS011;69555;53.014;8.886;2023-06-10T09:12:24;10.07;;;3.90;;
34144;SDS011;69555;53.014;8.886;2023-06-10T09:14:49;8.05;;;3.42;;
34144;SDS011;69555;53.014;8.886;2023-06-10T09:17:15;16.20;;;4.32;;
34144;SDS011;69555;53.014;8.886;2023-06-10T09:19:41;17.73;;;4.25;;
34144;SDS011;69555;53.014;8.886;2023-06-10T09:22:09;26.45;;;5.13;;
34144;SDS011;69555;53.014;8.886;2023-06-10T09:24:34;14.85;;;3.80;;
34144;SDS011;69555;53.014;8.886;2023-06-10T09:27:07;13.20;;;4.82;;
34144;SDS011;69555;53.014;8.886;2023-06-10T09:29:54;14.35;;;4.63;;
34144;SDS011;69555;53.014;8.886;2023-06-10T09:32:20;20.70;;;3.90;;
34144;SDS011;69555;53.014;8.886;2023-06-10T09:34:46;26.60;;;5.30;;
34144;SDS011;69555;53.014;8.886;2023-06-10T09:37:12;23.95;;;4.40;;
34144;SDS011;69555;53.014;8.886;2023-06-10T09:39:39;13.65;;;4.18;;
34144;SDS011;69555;53.014;8.886;2023-06-10T09:42:23;12.18;;;3.83;;
34144;SDS011;69555;53.014;8.886;2023-06-10T09:44:51;10.32;;;4.60;;
34144;SDS011;69555;53.014;8.886;2023-06-10T09:47:20;13.60;;;3.83;;
34144;SDS011;69555;53.014;8.886;2023-06-10T09:49:47;9.18;;;3.60;;
34144;SDS011;69555;53.014;8.886;2023-06-10T09:52:36;11.80;;;3.75;;
34144;SDS011;69555;53.014;8.886;2023-06-10T09:55:02;6.88;;;3.40;;
34144;SDS011;69555;53.014;8.886;2023-06-10T09:57:33;9.48;;;3.58;;
34144;SDS011;69555;53.014;8.886;2023-06-10T10:00:04;10.48;;;4.10;;
34144;SDS011;69555;53.014;8.886;2023-06-10T10:02:30;11.73;;;3.45;;
34144;SDS011;69555;53.014;8.886;2023-06-10T10:05:03;11.57;;;4.18;;
34144;SDS011;69555;53.014;8.886;2023-06-10T10:07:31;8.63;;;3.40;;
34144;SDS011;69555;53.014;8.886;2023-06-10T10:09:56;7.05;;;3.15;;
34144;SDS011;69555;53.014;8.886;2023-06-10T10:12:22;10.68;;;3.58;;
34144;SDS011;69555;53.014;8.886;2023-06-10T10:14:48;4.78;;;2.65;;
34144;SDS011;69555;53.014;8.886;2023-06-10T10:17:15;5.72;;;3.00;;
34144;SDS011;69555;53.014;8.886;2023-06-10T10:19:53;9.88;;;3.47;;
34144;SDS011;69555;53.014;8.886;2023-06-10T10:22:25;6.68;;;3.20;;
34144;SDS011;69555;53.014;8.886;2023-06-10T10:24:59;7.30;;;2.95;;
34144;SDS011;69555;53.014;8.886;2023-06-10T10:27:28;6.88;;;3.55;;
34144;SDS011;69555;53.014;8.886;2023-06-10T10:30:00;11.40;;;3.95;;
34144;SDS011;69555;53.014;8.886;2023-06-10T10:32:32;11.07;;;3.78;;
34144;SDS011;69555;53.014;8.886;2023-06-10T10:35:09;8.25;;;3.83;;
34144;SDS011;69555;53.014;8.886;2023-06-10T10:37:39;13.90;;;3.38;;
34144;SDS011;69555;53.014;8.886;2023-06-10T10:40:06;8.23;;;3.60;;
34144;SDS011;69555;53.014;8.886;2023-06-10T10:42:33;11.55;;;3.50;;
34144;SDS011;69555;53.014;8.886;2023-06-10T10:45:00;8.15;;;3.33;;
34144;SDS011;69555;53.014;8.886;2023-06-10T10:47:27;9.27;;;3.58;;
34144;SDS011;69555;53.014;8.886;2023-06-10T10:52:24;10.13;;;3.58;;
34144;SDS011;69555;53.014;8.886;2023-06-10T10:54:50;6.70;;;3.35;;
34144;SDS011;69555;53.014;8.886;2023-06-10T10:57:22;13.00;;;3.78;;
34144;SDS011;69555;53.014;8.886;2023-06-10T11:05:09;6.63;;;3.50;;
34144;SDS011;69555;53.014;8.886;2023-06-10T11:07:36;12.25;;;4.55;;
34144;SDS011;69555;53.014;8.886;2023-06-10T11:12:50;7.68;;;3.63;;
34144;SDS011;69555;53.014;8.886;2023-06-10T11:20:42;7.85;;;3.15;;
34144;SDS011;69555;53.014;8.886;2023-06-10T11:28:41;8.60;;;4.03;;
34144;SDS011;69555;53.014;8.886;2023-06-10T11:31:27;5.07;;;3.38;;
34144;SDS011;69555;53.014;8.886;2023-06-10T11:33:55;5.30;;;3.28;;
34144;SDS011;69555;53.014;8.886;2023-06-10T11:36:25;7.10;;;2.85;;
34144;SDS011;69555;53.014;8.886;2023-06-10T11:39:02;6.80;;;3.60;;
34144;SDS011;69555;53.014;8.886;2023-06-10T11:41:29;5.50;;;3.47;;
34144;SDS011;69555;53.014;8.886;2023-06-10T11:43:56;8.77;;;3.35;;
34144;SDS011;69555;53.014;8.886;2023-06-10T11:46:25;6.72;;;3.35;;
34144;SDS011;69555;53.014;8.886;2023-06-10T11:48:55;9.87;;;3.63;;
34144;SDS011;69555;53.014;8.886;2023-06-10T11:51:26;8.90;;;3.17;;
34144;SDS011;69555;53.014;8.886;2023-06-10T11:53:52;10.50;;;3.45;;
34144;SDS011;69555;53.014;8.886;2023-06-10T11:56:25;6.20;;;2.78;;
34144;SDS011;69555;53.014;8.886;2023-06-10T11:58:56;6.20;;;3.08;;
34144;SDS011;69555;53.014;8.886;2023-06-10T12:01:23;7.53;;;3.45;;
34144;SDS011;69555;53.014;8.886;2023-06-10T12:04:00;7.05;;;2.65;;
34144;SDS011;69555;53.014;8.886;2023-06-10T12:06:30;4.78;;;3.00;;
34144;SDS011;69555;53.014;8.886;2023-06-10T12:09:06;6.85;;;3.28;;
34144;SDS011;69555;53.014;8.886;2023-06-10T12:11:38;8.60;;;3.42;;
34144;SDS011;69555;53.014;8.886;2023-06-10T12:14:04;6.18;;;3.33;;
34144;SDS011;69555;53.014;8.886;2023-06-10T12:16:31;4.65;;;3.13;;
34144;SDS011;69555;53.014;8.886;2023-06-10T12:19:00;10.82;;;3.10;;
34144;SDS011;69555;53.014;8.886;2023-06-10T12:21:31;4.53;;;2.70;;
34144;SDS011;69555;53.014;8.886;2023-06-10T12:24:08;7.85;;;2.90;;
34144;SDS011;69555;53.014;8.886;2023-06-10T12:29:01;7.07;;;2.88;;
34144;SDS011;69555;53.014;8.886;2023-06-10T12:34:40;8.02;;;3.35;;
34144;SDS011;69555;53.014;8.886;2023-06-10T12:37:06;7.88;;;3.25;;
34144;SDS011;69555;53.014;8.886;2023-06-10T12:39:38;3.67;;;2.58;;
34144;SDS011;69555;53.014;8.886;2023-06-10T12:42:04;4.25;;;2.42;;
34144;SDS011;69555;53.014;8.886;2023-06-10T12:44:34;4.05;;;2.53;;
34144;SDS011;69555;53.014;8.886;2023-06-10T12:47:09;5.72;;;2.28;;
34144;SDS011;69555;53.014;8.886;2023-06-10T12:49:38;6.20;;;3.00;;
34144;SDS011;69555;53.014;8.886;2023-06-10T12:52:04;4.68;;;2.35;;
34144;SDS011;69555;53.014;8.886;2023-06-10T12:54:30;6.95;;;3.30;;
34144;SDS011;69555;53.014;8.886;2023-06-10T12:56:56;6.20;;;3.05;;
34144;SDS011;69555;53.014;8.886;2023-06-10T12:59:21;4.38;;;2.30;;
34144;SDS011;69555;53.014;8.886;2023-06-10T13:01:50;4.65;;;3.15;;
34144;SDS011;69555;53.014;8.886;2023-06-10T13:04:16;5.85;;;2.08;;
34144;SDS011;69555;53.014;8.886;2023-06-10T13:06:43;5.65;;;2.63;;
34144;SDS011;69555;53.014;8.886;2023-06-10T13:09:08;3.20;;;2.90;;
34144;SDS011;69555;53.014;8.886;2023-06-10T13:11:34;4.32;;;2.40;;
34144;SDS011;69555;53.014;8.886;2023-06-10T13:14:00;9.40;;;2.78;;
34144;SDS011;69555;53.014;8.886;2023-06-10T13:16:27;7.40;;;2.72;;
34144;SDS011;69555;53.014;8.886;2023-06-10T13:18:53;10.43;;;2.53;;
34144;SDS011;69555;53.014;8.886;2023-06-10T13:21:19;6.88;;;3.10;;
34144;SDS011;69555;53.014;8.886;2023-06-10T13:23:45;6.57;;;3.03;;
34144;SDS011;69555;53.014;8.886;2023-06-10T13:26:12;5.95;;;2.70;;
34144;SDS011;69555;53.014;8.886;2023-06-10T13:28:38;4.82;;;2.67;;
34144;SDS011;69555;53.014;8.886;2023-06-10T13:31:04;4.03;;;2.83;;
34144;SDS011;69555;53.014;8.886;2023-06-10T13:33:29;7.25;;;2.92;;
34144;SDS011;69555;53.014;8.886;2023-06-10T13:35:55;7.63;;;3.00;;
34144;SDS011;69555;53.014;8.886;2023-06-10T13:38:20;7.05;;;3.53;;
34144;SDS011;69555;53.014;8.886;2023-06-10T13:40:46;7.50;;;3.30;;
34144;SDS011;69555;53.014;8.886;2023-06-10T13:43:11;8.25;;;4.00;;
34144;SDS011;69555;53.014;8.886;2023-06-10T13:45:38;6.25;;;2.97;;
34144;SDS011;69555;53.014;8.886;2023-06-10T13:48:03;9.80;;;3.17;;
34144;SDS011;69555;53.014;8.886;2023-06-10T13:50:30;7.35;;;3.15;;
34144;SDS011;69555;53.014;8.886;2023-06-10T13:52:56;7.50;;;3.50;;
34144;SDS011;69555;53.014;8.886;2023-06-10T13:55:22;4.40;;;2.60;;
34144;SDS011;69555;53.014;8.886;2023-06-10T13:57:49;5.13;;;2.80;;
34144;SDS011;69555;53.014;8.886;2023-06-10T14:00:14;6.78;;;3.05;;
34144;SDS011;69555;53.014;8.886;2023-06-10T14:02:40;5.82;;;3.33;;
34144;SDS011;69555;53.014;8.886;2023-06-10T14:05:05;6.75;;;3.40;;
34144;SDS011;69555;53.014;8.886;2023-06-10T14:07:33;6.30;;;2.83;;
34144;SDS011;69555;53.014;8.886;2023-06-10T14:09:58;4.85;;;2.95;;
34144;SDS011;69555;53.014;8.886;2023-06-10T14:12:24;7.50;;;3.30;;
34144;SDS011;69555;53.014;8.886;2023-06-10T14:14:49;7.15;;;2.88;;
34144;SDS011;69555;53.014;8.886;2023-06-10T14:17:15;5.13;;;3.33;;
34144;SDS011;69555;53.014;8.886;2023-06-10T14:19:40;6.68;;;3.80;;
34144;SDS011;69555;53.014;8.886;2023-06-10T14:22:06;8.43;;;2.92;;
34144;SDS011;69555;53.014;8.886;2023-06-10T14:24:32;7.10;;;4.05;;
34144;SDS011;69555;53.014;8.886;2023-06-10T14:26:58;6.40;;;3.20;;
34144;SDS011;69555;53.014;8.886;2023-06-10T14:29:23;8.98;;;3.80;;
34144;SDS011;69555;53.014;8.886;2023-06-10T14:31:49;7.15;;;3.40;;
34144;SDS011;69555;53.014;8.886;2023-06-10T14:34:14;10.60;;;3.53;;
34144;SDS011;69555;53.014;8.886;2023-06-10T14:36:41;6.13;;;3.60;;
34144;SDS011;69555;53.014;8.886;2023-06-10T14:39:08;7.38;;;3.58;;
34144;SDS011;69555;53.014;8.886;2023-06-10T14:41:34;5.22;;;3.17;;
34144;SDS011;69555;53.014;8.886;2023-06-10T14:44:01;13.15;;;4.03;;
34144;SDS011;69555;53.014;8.886;2023-06-10T14:46:27;13.13;;;3.53;;
34144;SDS011;69555;53.014;8.886;2023-06-10T14:48:55;10.48;;;4.28;;
34144;SDS011;69555;53.014;8.886;2023-06-10T14:51:22;14.75;;;4.00;;
34144;SDS011;69555;53.014;8.886;2023-06-10T14:53:48;14.13;;;3.97;;
34144;SDS011;69555;53.014;8.886;2023-06-10T14:56:15;8.70;;;4.10;;
34144;SDS011;69555;53.014;8.886;2023-06-10T14:58:41;13.88;;;4.88;;
34144;SDS011;69555;53.014;8.886;2023-06-10T15:01:07;13.85;;;4.28;;
34144;SDS011;69555;53.014;8.886;2023-06-10T15:03:34;10.57;;;4.05;;
34144;SDS011;69555;53.014;8.886;2023-06-10T15:06:01;6.38;;;3.55;;
34144;SDS011;69555;53.014;8.886;2023-06-10T15:08:28;19.35;;;4.85;;
34144;SDS011;69555;53.014;8.886;2023-06-10T15:10:55;16.80;;;4.32;;
34144;SDS011;69555;53.014;8.886;2023-06-10T15:13:23;15.13;;;4.28;;
34144;SDS011;69555;53.014;8.886;2023-06-10T15:15:51;7.88;;;4.53;;
34144;SDS011;69555;53.014;8.886;2023-06-10T15:18:18;10.55;;;4.15;;
34144;SDS011;69555;53.014;8.886;2023-06-10T15:20:45;11.07;;;3.92;;
34144;SDS011;69555;53.014;8.886;2023-06-10T15:23:12;10.38;;;3.65;;
34144;SDS011;69555;53.014;8.886;2023-06-10T15:25:39;12.40;;;4.32;;
34144;SDS011;69555;53.014;8.886;2023-06-10T15:28:07;6.93;;;4.82;;
34144;SDS011;69555;53.014;8.886;2023-06-10T15:30:34;8.10;;;4.20;;
34144;SDS011;69555;53.014;8.886;2023-06-10T15:33:02;6.47;;;4.28;;
34144;SDS011;69555;53.014;8.886;2023-06-10T15:35:27;9.57;;;4.20;;
34144;SDS011;69555;53.014;8.886;2023-06-10T15:37:53;9.40;;;4.43;;
34144;SDS011;69555;53.014;8.886;2023-06-10T15:40:18;9.20;;;5.47;;
34144;SDS011;69555;53.014;8.886;2023-06-10T15:42:44;9.05;;;4.63;;
34144;SDS011;69555;53.014;8.886;2023-06-10T15:45:09;10.32;;;4.75;;
34144;SDS011;69555;53.014;8.886;2023-06-10T15:47:35;6.88;;;4.30;;
34144;SDS011;69555;53.014;8.886;2023-06-10T15:50:00;11.93;;;4.78;;
34144;SDS011;69555;53.014;8.886;2023-06-10T15:52:27;13.73;;;5.45;;
34144;SDS011;69555;53.014;8.886;2023-06-10T15:54:52;13.10;;;4.55;;
34144;SDS011;69555;53.014;8.886;2023-06-10T15:57:17;7.90;;;4.18;;
34144;SDS011;69555;53.014;8.886;2023-06-10T15:59:44;7.45;;;4.03;;
34144;SDS011;69555;53.014;8.886;2023-06-10T16:02:09;7.32;;;4.10;;
34144;SDS011;69555;53.014;8.886;2023-06-10T16:04:34;7.82;;;4.90;;
34144;SDS011;69555;53.014;8.886;2023-06-10T16:07:00;8.40;;;4.65;;
34144;SDS011;69555;53.014;8.886;2023-06-10T16:09:25;12.98;;;4.78;;
34144;SDS011;69555;53.014;8.886;2023-06-10T16:11:51;9.90;;;4.03;;
34144;SDS011;69555;53.014;8.886;2023-06-10T16:14:16;7.93;;;4.38;;
34144;SDS011;69555;53.014;8.886;2023-06-10T16:16:41;8.10;;;4.43;;
34144;SDS011;69555;53.014;8.886;2023-06-10T16:19:07;5.97;;;4.10;;
34144;SDS011;69555;53.014;8.886;2023-06-10T16:21:32;6.43;;;4.68;;
34144;SDS011;69555;53.014;8.886;2023-06-10T16:23:57;5.40;;;4.13;;
34144;SDS011;69555;53.014;8.886;2023-06-10T16:26:23;9.40;;;4.32;;
34144;SDS011;69555;53.014;8.886;2023-06-10T16:28:48;4.82;;;3.97;;
34144;SDS011;69555;53.014;8.886;2023-06-10T16:31:14;10.27;;;4.78;;
34144;SDS011;69555;53.014;8.886;2023-06-10T16:33:39;7.82;;;4.28;;
34144;SDS011;69555;53.014;8.886;2023-06-10T16:36:05;11.18;;;5.07;;
34144;SDS011;69555;53.014;8.886;2023-06-10T16:38:30;6.80;;;4.65;;
34144;SDS011;69555;53.014;8.886;2023-06-10T16:40:56;5.82;;;3.78;;
34144;SDS011;69555;53.014;8.886;2023-06-10T16:43:22;6.88;;;4.63;;
34144;SDS011;69555;53.014;8.886;2023-06-10T16:45:49;6.93;;;4.40;;
34144;SDS011;69555;53.014;8.886;2023-06-10T16:48:15;8.07;;;4.60;;
34144;SDS011;69555;53.014;8.886;2023-06-10T16:50:40;6.97;;;3.92;;
34144;SDS011;69555;53.014;8.886;2023-06-10T16:53:05;9.00;;;4.65;;
34144;SDS011;69555;53.014;8.886;2023-06-10T16:55:31;12.27;;;4.88;;
34144;SDS011;69555;53.014;8.886;2023-06-10T16:57:56;6.53;;;4.40;;
34144;SDS011;69555;53.014;8.886;2023-06-10T17:00:22;12.88;;;4.45;;
34144;SDS011;69555;53.014;8.886;2023-06-10T17:02:47;5.57;;;3.72;;
34144;SDS011;69555;53.014;8.886;2023-06-10T17:05:12;11.07;;;4.55;;
34144;SDS011;69555;53.014;8.886;2023-06-10T17:07:38;7.75;;;4.70;;
34144;SDS011;69555;53.014;8.886;2023-06-10T17:10:03;8.55;;;4.78;;
34144;SDS011;69555;53.014;8.886;2023-06-10T17:12:29;8.73;;;4.20;;
34144;SDS011;69555;53.014;8.886;2023-06-10T17:14:54;12.35;;;5.03;;
34144;SDS011;69555;53.014;8.886;2023-06-10T17:17:20;5.35;;;4.38;;
34144;SDS011;69555;53.014;8.886;2023-06-10T17:19:45;6.30;;;5.00;;
34144;SDS011;69555;53.014;8.886;2023-06-10T17:22:11;6.78;;;4.15;;
34144;SDS011;69555;53.014;8.886;2023-06-10T17:24:36;8.43;;;4.80;;
34144;SDS011;69555;53.014;8.886;2023-06-10T17:27:02;12.20;;;4.85;;
34144;SDS011;69555;53.014;8.886;2023-06-10T17:29:28;9.55;;;5.40;;
34144;SDS011;69555;53.014;8.886;2023-06-10T17:31:53;12.40;;;5.32;;
34144;SDS011;69555;53.014;8.886;2023-06-10T17:34:19;7.35;;;4.97;;
34144;SDS011;69555;53.014;8.886;2023-06-10T17:36:44;11.80;;;5.13;;
34144;SDS011;69555;53.014;8.886;2023-06-10T17:39:10;13.40;;;5.63;;
34144;SDS011;69555;53.014;8.886;2023-06-10T17:41:36;12.25;;;4.93;;
34144;SDS011;69555;53.014;8.886;2023-06-10T17:44:02;10.05;;;5.15;;
34144;SDS011;69555;53.014;8.886;2023-06-10T17:46:27;9.80;;;5.35;;
34144;SDS011;69555;53.014;8.886;2023-06-10T17:48:53;8.70;;;4.40;;
34144;SDS011;69555;53.014;8.886;2023-06-10T17:51:18;14.43;;;5.78;;
34144;SDS011;69555;53.014;8.886;2023-06-10T17:53:43;10.98;;;5.15;;
34144;SDS011;69555;53.014;8.886;2023-06-10T17:56:10;7.07;;;4.65;;
34144;SDS011;69555;53.014;8.886;2023-06-10T17:58:35;10.20;;;5.97;;
34144;SDS011;69555;53.014;8.886;2023-06-10T18:01:01;7.22;;;4.78;;
34144;SDS011;69555;53.014;8.886;2023-06-10T18:03:26;10.00;;;5.22;;
34144;SDS011;69555;53.014;8.886;2023-06-10T18:05:53;10.52;;;5.82;;
34144;SDS011;69555;53.014;8.886;2023-06-10T18:08:19;12.18;;;5.35;;
34144;SDS011;69555;53.014;8.886;2023-06-10T18:10:45;8.57;;;5.22;;
34144;SDS011;69555;53.014;8.886;2023-06-10T18:13:10;9.93;;;4.90;;
34144;SDS011;69555;53.014;8.886;2023-06-10T18:15:35;12.10;;;5.72;;
34144;SDS011;69555;53.014;8.886;2023-06-10T18:18:01;8.48;;;4.68;;
34144;SDS011;69555;53.014;8.886;2023-06-10T18:20:26;8.60;;;4.57;;
34144;SDS011;69555;53.014;8.886;2023-06-10T18:22:51;8.35;;;4.75;;
34144;SDS011;69555;53.014;8.886;2023-06-10T18:25:17;8.15;;;4.57;;
34144;SDS011;69555;53.014;8.886;2023-06-10T18:27:42;8.77;;;5.25;;
34144;SDS011;69555;53.014;8.886;2023-06-10T18:30:08;7.95;;;4.95;;
34144;SDS011;69555;53.014;8.886;2023-06-10T18:32:34;9.20;;;4.63;;
34144;SDS011;69555;53.014;8.886;2023-06-10T18:35:00;11.60;;;4.95;;
34144;SDS011;69555;53.014;8.886;2023-06-10T18:37:25;7.20;;;4.55;;
34144;SDS011;69555;53.014;8.886;2023-06-10T18:39:50;6.32;;;4.68;;
34144;SDS011;69555;53.014;8.886;2023-06-10T18:42:16;6.25;;;4.28;;
34144;SDS011;69555;53.014;8.886;2023-06-10T18:44:41;7.50;;;5.25;;
34144;SDS011;69555;53.014;8.886;2023-06-10T18:47:07;6.45;;;4.55;;
34144;SDS011;69555;53.014;8.886;2023-06-10T18:49:32;7.38;;;4.47;;
34144;SDS011;69555;53.014;8.886;2023-06-10T18:51:58;6.78;;;4.22;;
34144;SDS011;69555;53.014;8.886;2023-06-10T18:54:23;6.50;;;4.72;;
34144;SDS011;69555;53.014;8.886;2023-06-10T18:56:49;4.47;;;3.83;;
34144;SDS011;69555;53.014;8.886;2023-06-10T18:59:16;5.00;;;4.20;;
34144;SDS011;69555;53.014;8.886;2023-06-10T19:01:41;7.97;;;5.15;;
34144;SDS011;69555;53.014;8.886;2023-06-10T19:04:07;7.82;;;4.80;;
34144;SDS011;69555;53.014;8.886;2023-06-10T19:06:33;7.35;;;4.95;;
34144;SDS011;69555;53.014;8.886;2023-06-10T19:08:58;11.02;;;4.40;;
34144;SDS011;69555;53.014;8.886;2023-06-10T19:11:23;6.72;;;4.40;;
34144;SDS011;69555;53.014;8.886;2023-06-10T19:13:50;7.18;;;5.05;;
34144;SDS011;69555;53.014;8.886;2023-06-10T19:16:15;7.05;;;4.25;;
34144;SDS011;69555;53.014;8.886;2023-06-10T19:18:41;7.28;;;4.30;;
34144;SDS011;69555;53.014;8.886;2023-06-10T19:21:06;7.22;;;4.05;;
34144;SDS011;69555;53.014;8.886;2023-06-10T19:23:31;6.65;;;4.10;;
34144;SDS011;69555;53.014;8.886;2023-06-10T19:25:57;6.13;;;4.35;;
34144;SDS011;69555;53.014;8.886;2023-06-10T19:28:24;5.75;;;4.38;;
34144;SDS011;69555;53.014;8.886;2023-06-10T19:30:50;6.63;;;4.63;;
34144;SDS011;69555;53.014;8.886;2023-06-10T19:33:15;8.35;;;5.10;;
34144;SDS011;69555;53.014;8.886;2023-06-10T19:35:41;6.80;;;4.55;;
34144;SDS011;69555;53.014;8.886;2023-06-10T19:38:06;5.32;;;4.20;;
34144;SDS011;69555;53.014;8.886;2023-06-10T19:40:31;6.60;;;4.25;;
34144;SDS011;69555;53.014;8.886;2023-06-10T19:42:57;6.55;;;4.13;;
34144;SDS011;69555;53.014;8.886;2023-06-10T19:45:22;5.00;;;4.05;;
